sensor_id;sensor_type;location;lat;lon;timestamp;pressure;altitude;pressure_sealevel;temperature;humidity
17781;BME280;8498;52.516;13.790;2023-01-23T00:02:52;102964.16;;;3.47;99.92
17781;BME280;8498;52.516;13.790;2023-01-23T00:08:14;102965.06;;;3.41;99.80
17781;BME280;8498;52.516;13.790;2023-01-23T00:13:36;102969.44;;;3.45;99.55
17781;BME280;8498;52.516;13.790;2023-01-23T00:18:59;102966.78;;;3.44;99.66
17781;BME280;8498;52.516;13.790;2023-01-23T00:24:21;102964.19;;;3.51;99.75
17781;BME280;8498;52.516;13.790;2023-01-23T00:29:44;102961.53;;;3.47;99.61
17781;BME280;8498;52.516;13.790;2023-01-23T00:35:08;102965.06;;;3.40;99.61
17781;BME280;8498;52.516;13.790;2023-01-23T00:40:30;102975.56;;;3.44;99.87
17781;BME280;8498;52.516;13.790;2023-01-23T00:45:53;102977.31;;;3.48;99.82
17781;BME280;8498;52.516;13.790;2023-01-23T00:51:16;102972.09;;;3.39;99.53
17781;BME280;8498;52.516;13.790;2023-01-23T00:56:38;102975.59;;;3.40;99.82
17781;BME280;8498;52.516;13.790;2023-01-23T01:02:01;102982.59;;;3.42;99.70
17781;BME280;8498;52.516;13.790;2023-01-23T01:07:23;102993.97;;;3.50;99.70
17781;BME280;8498;52.516;13.790;2023-01-23T01:12:46;102999.22;;;3.49;99.53
17781;BME280;8498;52.516;13.790;2023-01-23T01:18:08;102997.47;;;3.40;99.58
17781;BME280;8498;52.516;13.790;2023-01-23T01:23:31;103002.72;;;3.43;99.75
17781;BME280;8498;52.516;13.790;2023-01-23T01:28:53;103008.88;;;3.38;99.58
17781;BME280;8498;52.516;13.790;2023-01-23T01:34:16;103014.09;;;3.47;99.28
17781;BME280;8498;52.516;13.790;2023-01-23T01:39:38;103007.97;;;3.45;99.53
17781;BME280;8498;52.516;13.790;2023-01-23T01:45:04;103013.22;;;3.43;99.47
17781;BME280;8498;52.516;13.790;2023-01-23T01:50:26;103017.59;;;3.43;99.26
17781;BME280;8498;52.516;13.790;2023-01-23T01:55:49;103025.50;;;3.41;99.24
17781;BME280;8498;52.516;13.790;2023-01-23T02:01:12;103029.00;;;3.42;99.50
17781;BME280;8498;52.516;13.790;2023-01-23T02:06:35;103012.34;;;3.44;99.55
17781;BME280;8498;52.516;13.790;2023-01-23T02:11:57;103016.75;;;3.42;99.39
17781;BME280;8498;52.516;13.790;2023-01-23T02:17:19;103016.75;;;3.42;99.40
17781;BME280;8498;52.516;13.790;2023-01-23T02:28:14;103020.22;;;3.44;99.26
17781;BME280;8498;52.516;13.790;2023-01-23T02:39:14;103033.38;;;3.43;98.99
17781;BME280;8498;52.516;13.790;2023-01-23T02:44:37;103027.25;;;3.42;99.17
17781;BME280;8498;52.516;13.790;2023-01-23T02:50:01;103029.88;;;3.44;98.44
17781;BME280;8498;52.516;13.790;2023-01-23T02:55:24;103043.00;;;3.36;98.62
17781;BME280;8498;52.516;13.790;2023-01-23T03:00:54;103055.28;;;3.40;98.62
17781;BME280;8498;52.516;13.790;2023-01-23T03:06:17;103063.19;;;3.31;98.98
17781;BME280;8498;52.516;13.790;2023-01-23T03:11:42;103064.03;;;3.44;98.68
17781;BME280;8498;52.516;13.790;2023-01-23T03:17:05;103065.78;;;3.43;98.12
17781;BME280;8498;52.516;13.790;2023-01-23T03:22:30;103062.28;;;3.49;98.25
17781;BME280;8498;52.516;13.790;2023-01-23T03:27:54;103064.91;;;3.44;98.07
17781;BME280;8498;52.516;13.790;2023-01-23T03:33:16;103069.28;;;3.48;98.15
17781;BME280;8498;52.516;13.790;2023-01-23T03:38:39;103075.41;;;3.43;97.85
17781;BME280;8498;52.516;13.790;2023-01-23T03:44:21;103084.16;;;3.43;97.98
17781;BME280;8498;52.516;13.790;2023-01-23T03:49:45;103094.72;;;3.42;98.07
17781;BME280;8498;52.516;13.790;2023-01-23T03:55:08;103098.19;;;3.36;98.25
17781;BME280;8498;52.516;13.790;2023-01-23T04:00:32;103110.47;;;3.46;98.38
17781;BME280;8498;52.516;13.790;2023-01-23T04:05:58;103098.19;;;3.47;98.06
17781;BME280;8498;52.516;13.790;2023-01-23T04:11:21;103107.84;;;3.49;97.92
17781;BME280;8498;52.516;13.790;2023-01-23T04:16:43;103110.47;;;3.48;97.90
17781;BME280;8498;52.516;13.790;2023-01-23T04:22:06;103118.34;;;3.46;97.60
17781;BME280;8498;52.516;13.790;2023-01-23T04:27:39;103123.59;;;3.43;97.98
17781;BME280;8498;52.516;13.790;2023-01-23T04:33:03;103113.97;;;3.48;97.86
17781;BME280;8498;52.516;13.790;2023-01-23T04:38:29;103121.84;;;3.42;97.81
17781;BME280;8498;52.516;13.790;2023-01-23T04:44:03;103114.84;;;3.41;97.89
17781;BME280;8498;52.516;13.790;2023-01-23T04:50:05;103120.09;;;3.35;97.85
17781;BME280;8498;52.516;13.790;2023-01-23T04:55:29;103125.34;;;3.46;97.82
17781;BME280;8498;52.516;13.790;2023-01-23T05:00:53;103140.25;;;3.41;97.71
17781;BME280;8498;52.516;13.790;2023-01-23T05:06:22;103128.88;;;3.40;97.77
17781;BME280;8498;52.516;13.790;2023-01-23T05:11:48;103137.63;;;3.41;97.55
17781;BME280;8498;52.516;13.790;2023-01-23T05:17:11;103127.97;;;3.43;97.77
17781;BME280;8498;52.516;13.790;2023-01-23T05:22:39;103127.09;;;3.39;97.58
17781;BME280;8498;52.516;13.790;2023-01-23T05:28:16;103130.59;;;3.38;97.57
17781;BME280;8498;52.516;13.790;2023-01-23T05:33:42;103125.34;;;3.38;97.65
17781;BME280;8498;52.516;13.790;2023-01-23T05:39:05;103128.84;;;3.28;97.72
17781;BME280;8498;52.516;13.790;2023-01-23T05:44:27;103127.97;;;3.33;97.88
17781;BME280;8498;52.516;13.790;2023-01-23T05:49:58;103137.59;;;3.36;97.74
17781;BME280;8498;52.516;13.790;2023-01-23T05:55:24;103143.75;;;3.41;97.45
17781;BME280;8498;52.516;13.790;2023-01-23T06:00:49;103162.13;;;3.38;97.47
17781;BME280;8498;52.516;13.790;2023-01-23T06:06:30;103172.63;;;3.37;97.38
17781;BME280;8498;52.516;13.790;2023-01-23T06:11:53;103170.91;;;3.31;97.38
17781;BME280;8498;52.516;13.790;2023-01-23T06:17:15;103176.09;;;3.16;97.78
17781;BME280;8498;52.516;13.790;2023-01-23T06:22:37;103185.75;;;3.18;98.07
17781;BME280;8498;52.516;13.790;2023-01-23T06:28:04;103183.16;;;3.29;97.49
17781;BME280;8498;52.516;13.790;2023-01-23T06:33:29;103184.88;;;3.24;97.69
17781;BME280;8498;52.516;13.790;2023-01-23T06:38:52;103196.25;;;3.26;97.66
17781;BME280;8498;52.516;13.790;2023-01-23T06:44:20;103200.63;;;3.24;97.59
17781;BME280;8498;52.516;13.790;2023-01-23T06:49:43;103208.53;;;3.28;97.70
17781;BME280;8498;52.516;13.790;2023-01-23T06:55:06;103207.66;;;3.26;97.39
17781;BME280;8498;52.516;13.790;2023-01-23T07:00:29;103214.63;;;3.23;98.02
17781;BME280;8498;52.516;13.790;2023-01-23T07:05:53;103219.88;;;3.23;97.68
17781;BME280;8498;52.516;13.790;2023-01-23T07:11:16;103219.03;;;3.28;97.60
17781;BME280;8498;52.516;13.790;2023-01-23T07:16:38;103216.41;;;3.27;97.49
17781;BME280;8498;52.516;13.790;2023-01-23T07:22:00;103224.28;;;3.24;97.64
17781;BME280;8498;52.516;13.790;2023-01-23T07:27:23;103221.69;;;3.30;97.42
17781;BME280;8498;52.516;13.790;2023-01-23T07:32:46;103226.06;;;3.36;97.20
17781;BME280;8498;52.516;13.790;2023-01-23T07:38:08;103217.31;;;3.29;96.98
17781;BME280;8498;52.516;13.790;2023-01-23T07:43:31;103222.53;;;3.26;97.19
17781;BME280;8498;52.516;13.790;2023-01-23T07:48:53;103222.53;;;3.33;96.91
17781;BME280;8498;52.516;13.790;2023-01-23T07:54:17;103222.53;;;3.26;96.37
17781;BME280;8498;52.516;13.790;2023-01-23T07:59:39;103226.94;;;3.28;96.70
17781;BME280;8498;52.516;13.790;2023-01-23T08:05:02;103228.69;;;3.37;96.41
17781;BME280;8498;52.516;13.790;2023-01-23T08:10:25;103228.72;;;3.40;96.27
17781;BME280;8498;52.516;13.790;2023-01-23T08:15:47;103239.22;;;3.43;95.73
17781;BME280;8498;52.516;13.790;2023-01-23T08:21:10;103249.66;;;3.23;95.82
17781;BME280;8498;52.516;13.790;2023-01-23T08:26:32;103247.97;;;3.38;95.81
17781;BME280;8498;52.516;13.790;2023-01-23T08:31:55;103256.75;;;3.47;95.62
17781;BME280;8498;52.516;13.790;2023-01-23T08:37:17;103258.53;;;3.50;95.29
17781;BME280;8498;52.516;13.790;2023-01-23T08:42:40;103278.66;;;3.46;94.79
17781;BME280;8498;52.516;13.790;2023-01-23T08:48:02;103283.91;;;3.42;94.86
17781;BME280;8498;52.516;13.790;2023-01-23T08:53:25;103287.38;;;3.38;94.92
17781;BME280;8498;52.516;13.790;2023-01-23T08:58:48;103297.91;;;3.39;94.79
17781;BME280;8498;52.516;13.790;2023-01-23T09:04:11;103302.28;;;3.43;95.01
17781;BME280;8498;52.516;13.790;2023-01-23T09:09:33;103320.72;;;3.48;95.14
17781;BME280;8498;52.516;13.790;2023-01-23T09:14:56;103310.19;;;3.46;94.43
17781;BME280;8498;52.516;13.790;2023-01-23T09:20:18;103319.84;;;3.53;94.15
17781;BME280;8498;52.516;13.790;2023-01-23T09:25:41;103325.09;;;3.56;93.87
17781;BME280;8498;52.516;13.790;2023-01-23T09:31:05;103344.41;;;3.64;93.87
17781;BME280;8498;52.516;13.790;2023-01-23T09:36:28;103350.56;;;3.69;93.64
17781;BME280;8498;52.516;13.790;2023-01-23T09:42:04;103347.91;;;3.63;93.39
17781;BME280;8498;52.516;13.790;2023-01-23T09:47:37;103337.44;;;3.73;93.72
17781;BME280;8498;52.516;13.790;2023-01-23T09:53:11;103340.03;;;3.66;93.31
17781;BME280;8498;52.516;13.790;2023-01-23T09:59:11;103347.09;;;3.72;93.42
17781;BME280;8498;52.516;13.790;2023-01-23T10:04:34;103346.19;;;3.72;92.88
17781;BME280;8498;52.516;13.790;2023-01-23T10:16:22;103338.31;;;3.73;92.92
17781;BME280;8498;52.516;13.790;2023-01-23T10:22:33;103352.34;;;3.71;92.91
17781;BME280;8498;52.516;13.790;2023-01-23T10:28:12;103363.75;;;3.82;92.67
17781;BME280;8498;52.516;13.790;2023-01-23T10:39:30;103362.03;;;3.99;93.09
17781;BME280;8498;52.516;13.790;2023-01-23T10:44:53;103371.66;;;3.88;91.91
17781;BME280;8498;52.516;13.790;2023-01-23T10:50:33;103364.66;;;3.96;92.37
17781;BME280;8498;52.516;13.790;2023-01-23T10:55:57;103358.53;;;3.98;91.13
17781;BME280;8498;52.516;13.790;2023-01-23T11:01:25;103354.16;;;3.94;91.31
17781;BME280;8498;52.516;13.790;2023-01-23T11:12:34;103362.06;;;4.14;90.94
17781;BME280;8498;52.516;13.790;2023-01-23T11:18:38;103346.25;;;4.06;90.69
17781;BME280;8498;52.516;13.790;2023-01-23T11:24:35;103351.53;;;4.06;90.22
17781;BME280;8498;52.516;13.790;2023-01-23T11:30:34;103339.25;;;4.10;89.77
17781;BME280;8498;52.516;13.790;2023-01-23T11:41:40;103343.66;;;4.28;89.55
17781;BME280;8498;52.516;13.790;2023-01-23T11:47:32;103325.22;;;4.20;89.16
17781;BME280;8498;52.516;13.790;2023-01-23T11:59:34;103322.56;;;4.72;87.58
17781;BME280;8498;52.516;13.790;2023-01-23T12:10:58;103319.94;;;4.63;87.31
17781;BME280;8498;52.516;13.790;2023-01-23T12:27:57;103316.44;;;4.64;86.76
17781;BME280;8498;52.516;13.790;2023-01-23T12:44:37;103300.63;;;4.73;86.27
17781;BME280;8498;52.516;13.790;2023-01-23T12:50:18;103298.00;;;4.59;85.43
17781;BME280;8498;52.516;13.790;2023-01-23T13:07:08;103292.75;;;4.53;85.38
17781;BME280;8498;52.516;13.790;2023-01-23T13:12:34;103300.66;;;4.61;85.75
17781;BME280;8498;52.516;13.790;2023-01-23T13:18:01;103307.69;;;4.56;85.59
17781;BME280;8498;52.516;13.790;2023-01-23T13:23:34;103310.31;;;4.48;85.03
17781;BME280;8498;52.516;13.790;2023-01-23T13:28:59;103309.47;;;4.46;85.55
17781;BME280;8498;52.516;13.790;2023-01-23T13:40:01;103302.44;;;4.31;85.06
17781;BME280;8498;52.516;13.790;2023-01-23T13:45:30;103304.19;;;4.23;84.95
17781;BME280;8498;52.516;13.790;2023-01-23T13:51:14;103310.31;;;4.27;84.95
17781;BME280;8498;52.516;13.790;2023-01-23T13:56:52;103296.28;;;4.31;85.28
17781;BME280;8498;52.516;13.790;2023-01-23T14:02:33;103298.03;;;4.29;85.19
17781;BME280;8498;52.516;13.790;2023-01-23T14:08:29;103305.94;;;4.35;85.71
17781;BME280;8498;52.516;13.790;2023-01-23T14:14:05;103312.09;;;4.35;85.37
17781;BME280;8498;52.516;13.790;2023-01-23T14:20:13;103314.72;;;4.32;85.22
17781;BME280;8498;52.516;13.790;2023-01-23T14:25:51;103318.22;;;4.34;85.55
17781;BME280;8498;52.516;13.790;2023-01-23T14:31:30;103324.34;;;4.36;85.42
17781;BME280;8498;52.516;13.790;2023-01-23T14:37:03;103325.25;;;4.25;84.99
17781;BME280;8498;52.516;13.790;2023-01-23T14:42:28;103323.47;;;4.28;85.48
17781;BME280;8498;52.516;13.790;2023-01-23T14:47:52;103323.47;;;4.28;85.33
17781;BME280;8498;52.516;13.790;2023-01-23T14:53:27;103342.78;;;4.24;85.40
17781;BME280;8498;52.516;13.790;2023-01-23T14:58:49;103336.63;;;4.22;86.22
17781;BME280;8498;52.516;13.790;2023-01-23T15:04:20;103335.75;;;4.20;85.94
17781;BME280;8498;52.516;13.790;2023-01-23T15:09:42;103344.50;;;4.16;85.93
17781;BME280;8498;52.516;13.790;2023-01-23T15:15:17;103342.78;;;4.12;86.23
17781;BME280;8498;52.516;13.790;2023-01-23T15:20:51;103357.66;;;4.09;86.25
17781;BME280;8498;52.516;13.790;2023-01-23T15:37:26;103360.28;;;3.98;86.57
17781;BME280;8498;52.516;13.790;2023-01-23T15:43:10;103357.63;;;3.96;87.17
17781;BME280;8498;52.516;13.790;2023-01-23T15:48:33;103368.16;;;3.98;87.68
17781;BME280;8498;52.516;13.790;2023-01-23T15:53:55;103362.03;;;3.96;87.76
17781;BME280;8498;52.516;13.790;2023-01-23T15:59:18;103365.53;;;3.96;87.87
17781;BME280;8498;52.516;13.790;2023-01-23T16:04:42;103368.16;;;3.95;87.95
17781;BME280;8498;52.516;13.790;2023-01-23T16:10:28;103371.66;;;3.97;88.47
17781;BME280;8498;52.516;13.790;2023-01-23T16:15:52;103384.81;;;3.97;88.45
17781;BME280;8498;52.516;13.790;2023-01-23T16:21:16;103379.56;;;3.97;88.25
17781;BME280;8498;52.516;13.790;2023-01-23T16:26:41;103383.06;;;3.90;88.42
17781;BME280;8498;52.516;13.790;2023-01-23T16:32:03;103391.81;;;3.86;88.80
17781;BME280;8498;52.516;13.790;2023-01-23T16:37:26;103396.19;;;3.85;88.79
17781;BME280;8498;52.516;13.790;2023-01-23T16:42:52;103403.19;;;3.82;88.57
17781;BME280;8498;52.516;13.790;2023-01-23T16:48:14;103400.56;;;3.80;88.82
17781;BME280;8498;52.516;13.790;2023-01-23T16:53:54;103395.28;;;3.77;89.33
17781;BME280;8498;52.516;13.790;2023-01-23T16:59:21;103387.38;;;3.71;88.95
17781;BME280;8498;52.516;13.790;2023-01-23T17:04:47;103393.50;;;3.68;88.79
17781;BME280;8498;52.516;13.790;2023-01-23T17:10:13;103398.75;;;3.68;89.08
17781;BME280;8498;52.516;13.790;2023-01-23T17:15:36;103404.91;;;3.71;89.27
17781;BME280;8498;52.516;13.790;2023-01-23T17:20:59;103408.41;;;3.68;89.33
17781;BME280;8498;52.516;13.790;2023-01-23T17:26:22;103407.50;;;3.64;89.42
17781;BME280;8498;52.516;13.790;2023-01-23T17:31:45;103409.28;;;3.62;89.93
17781;BME280;8498;52.516;13.790;2023-01-23T17:37:18;103413.66;;;3.62;88.98
17781;BME280;8498;52.516;13.790;2023-01-23T17:42:41;103411.03;;;3.62;90.00
17781;BME280;8498;52.516;13.790;2023-01-23T17:48:04;103413.66;;;3.62;89.64
17781;BME280;8498;52.516;13.790;2023-01-23T17:53:27;103417.13;;;3.59;89.15
17781;BME280;8498;52.516;13.790;2023-01-23T17:58:51;103423.22;;;3.54;89.13
17781;BME280;8498;52.516;13.790;2023-01-23T18:04:18;103419.75;;;3.56;89.18
17781;BME280;8498;52.516;13.790;2023-01-23T18:09:41;103419.72;;;3.53;89.09
17781;BME280;8498;52.516;13.790;2023-01-23T18:15:13;103419.72;;;3.50;89.03
17781;BME280;8498;52.516;13.790;2023-01-23T18:20:37;103412.72;;;3.49;89.03
17781;BME280;8498;52.516;13.790;2023-01-23T18:31:29;103418.00;;;3.52;89.20
17781;BME280;8498;52.516;13.790;2023-01-23T18:37:05;103424.97;;;3.50;89.16
17781;BME280;8498;52.516;13.790;2023-01-23T18:42:33;103422.34;;;3.53;88.82
17781;BME280;8498;52.516;13.790;2023-01-23T18:47:57;103417.94;;;3.46;88.70
17781;BME280;8498;52.516;13.790;2023-01-23T18:59:22;103425.81;;;3.45;89.04
17781;BME280;8498;52.516;13.790;2023-01-23T19:05:07;103417.06;;;3.41;88.92
17781;BME280;8498;52.516;13.790;2023-01-23T19:10:43;103417.03;;;3.40;88.98
17781;BME280;8498;52.516;13.790;2023-01-23T19:16:21;103413.56;;;3.42;88.73
17781;BME280;8498;52.516;13.790;2023-01-23T19:21:50;103410.91;;;3.45;88.82
17781;BME280;8498;52.516;13.790;2023-01-23T19:27:19;103414.41;;;3.43;88.60
17781;BME280;8498;52.516;13.790;2023-01-23T19:32:42;103418.81;;;3.42;88.82
17781;BME280;8498;52.516;13.790;2023-01-23T19:38:05;103432.81;;;3.44;88.39
17781;BME280;8498;52.516;13.790;2023-01-23T19:43:27;103431.06;;;3.43;88.35
17781;BME280;8498;52.516;13.790;2023-01-23T19:48:50;103431.94;;;3.45;87.95
17781;BME280;8498;52.516;13.790;2023-01-23T19:54:14;103431.97;;;3.42;87.69
17781;BME280;8498;52.516;13.790;2023-01-23T19:59:36;103435.41;;;3.38;87.46
17781;BME280;8498;52.516;13.790;2023-01-23T20:04:59;103442.41;;;3.35;87.82
17781;BME280;8498;52.516;13.790;2023-01-23T20:10:23;103448.53;;;3.33;88.02
17781;BME280;8498;52.516;13.790;2023-01-23T20:15:47;103445.03;;;3.35;87.93
17781;BME280;8498;52.516;13.790;2023-01-23T20:21:10;103451.16;;;3.32;87.78
17781;BME280;8498;52.516;13.790;2023-01-23T20:26:32;103448.53;;;3.32;87.64
17781;BME280;8498;52.516;13.790;2023-01-23T20:31:55;103452.91;;;3.30;87.69
17781;BME280;8498;52.516;13.790;2023-01-23T20:37:17;103455.53;;;3.30;87.74
17781;BME280;8498;52.516;13.790;2023-01-23T20:42:39;103454.63;;;3.28;87.90
17781;BME280;8498;52.516;13.790;2023-01-23T20:48:01;103458.13;;;3.27;88.05
17781;BME280;8498;52.516;13.790;2023-01-23T20:53:24;103463.38;;;3.27;87.85
17781;BME280;8498;52.516;13.790;2023-01-23T20:58:53;103461.66;;;3.30;87.68
17781;BME280;8498;52.516;13.790;2023-01-23T21:04:36;103473.00;;;3.26;87.40
17781;BME280;8498;52.516;13.790;2023-01-23T21:09:59;103485.25;;;3.26;87.76
17781;BME280;8498;52.516;13.790;2023-01-23T21:15:21;103471.25;;;3.27;87.54
17781;BME280;8498;52.516;13.790;2023-01-23T21:20:44;103482.59;;;3.23;87.58
17781;BME280;8498;52.516;13.790;2023-01-23T21:26:07;103489.63;;;3.24;87.50
17781;BME280;8498;52.516;13.790;2023-01-23T21:31:31;103484.38;;;3.24;87.54
17781;BME280;8498;52.516;13.790;2023-01-23T21:36:55;103478.22;;;3.20;87.08
17781;BME280;8498;52.516;13.790;2023-01-23T21:42:17;103485.28;;;3.27;86.69
17781;BME280;8498;52.516;13.790;2023-01-23T21:47:39;103491.38;;;3.25;86.79
17781;BME280;8498;52.516;13.790;2023-01-23T21:53:02;103485.25;;;3.24;86.63
17781;BME280;8498;52.516;13.790;2023-01-23T21:58:24;103480.84;;;3.22;86.82
17781;BME280;8498;52.516;13.790;2023-01-23T22:03:47;103478.22;;;3.19;86.53
17781;BME280;8498;52.516;13.790;2023-01-23T22:09:13;103479.09;;;3.18;86.78
17781;BME280;8498;52.516;13.790;2023-01-23T22:14:36;103477.28;;;3.14;86.24
17781;BME280;8498;52.516;13.790;2023-01-23T22:19:58;103477.28;;;3.14;86.69
17781;BME280;8498;52.516;13.790;2023-01-23T22:25:21;103476.44;;;3.16;86.73
17781;BME280;8498;52.516;13.790;2023-01-23T22:30:44;103476.44;;;3.15;86.57
17781;BME280;8498;52.516;13.790;2023-01-23T22:36:11;103487.78;;;3.11;86.37
17781;BME280;8498;52.516;13.790;2023-01-23T22:41:33;103489.53;;;3.09;86.48
17781;BME280;8498;52.516;13.790;2023-01-23T22:46:56;103492.16;;;3.09;86.41
17781;BME280;8498;52.516;13.790;2023-01-23T22:52:18;103480.78;;;3.10;86.95
17781;BME280;8498;52.516;13.790;2023-01-23T22:57:41;103486.03;;;3.08;86.90
17781;BME280;8498;52.516;13.790;2023-01-23T23:03:03;103480.78;;;3.11;86.64
17781;BME280;8498;52.516;13.790;2023-01-23T23:08:26;103480.69;;;2.99;86.98
17781;BME280;8498;52.516;13.790;2023-01-23T23:13:49;103485.09;;;3.05;87.20
17781;BME280;8498;52.516;13.790;2023-01-23T23:19:12;103485.06;;;3.02;86.96
17781;BME280;8498;52.516;13.790;2023-01-23T23:24:34;103484.22;;;3.00;86.77
17781;BME280;8498;52.516;13.790;2023-01-23T23:29:56;103478.88;;;2.90;86.02
17781;BME280;8498;52.516;13.790;2023-01-23T23:35:18;103467.44;;;2.84;84.77
17781;BME280;8498;52.516;13.790;2023-01-23T23:40:41;103463.84;;;2.74;84.76
17781;BME280;8498;52.516;13.790;2023-01-23T23:46:06;103454.25;;;2.76;84.77
17781;BME280;8498;52.516;13.790;2023-01-23T23:51:28;103452.53;;;2.78;84.92
17781;BME280;8498;52.516;13.790;2023-01-23T23:56:50;103460.38;;;2.78;84.29
